sensor_id;sensor_type;location;lat;lon;timestamp;P1;durP1;ratioP1;P2;durP2;ratioP2
68457;SDS011;65384;52.016;5.428;2023-04-24T00:01:20;3.92;;;2.05;;
68457;SDS011;65384;52.016;5.428;2023-04-24T00:03:46;5.28;;;2.13;;
68457;SDS011;65384;52.016;5.428;2023-04-24T00:06:11;4.35;;;1.75;;
68457;SDS011;65384;52.016;5.428;2023-04-24T00:08:37;4.53;;;1.70;;
68457;SDS011;65384;52.016;5.428;2023-04-24T00:11:03;3.97;;;2.00;;
68457;SDS011;65384;52.016;5.428;2023-04-24T00:13:28;5.03;;;2.17;;
68457;SDS011;65384;52.016;5.428;2023-04-24T00:15:54;4.05;;;2.10;;
68457;SDS011;65384;52.016;5.428;2023-04-24T00:18:20;3.03;;;1.70;;
68457;SDS011;65384;52.016;5.428;2023-04-24T00:20:45;3.45;;;1.75;;
68457;SDS011;65384;52.016;5.428;2023-04-24T00:23:11;5.22;;;2.20;;
68457;SDS011;65384;52.016;5.428;2023-04-24T00:25:37;2.25;;;1.55;;
68457;SDS011;65384;52.016;5.428;2023-04-24T00:28:02;5.18;;;1.90;;
68457;SDS011;65384;52.016;5.428;2023-04-24T00:30:27;4.15;;;1.60;;
68457;SDS011;65384;52.016;5.428;2023-04-24T00:32:53;3.30;;;2.00;;
68457;SDS011;65384;52.016;5.428;2023-04-24T00:35:19;4.43;;;1.90;;
68457;SDS011;65384;52.016;5.428;2023-04-24T00:37:45;4.32;;;1.77;;
68457;SDS011;65384;52.016;5.428;2023-04-24T00:40:10;5.55;;;2.20;;
68457;SDS011;65384;52.016;5.428;2023-04-24T00:42:36;6.43;;;2.38;;
68457;SDS011;65384;52.016;5.428;2023-04-24T00:45:01;3.33;;;1.83;;
68457;SDS011;65384;52.016;5.428;2023-04-24T00:47:28;4.90;;;2.00;;
68457;SDS011;65384;52.016;5.428;2023-04-24T00:49:53;2.95;;;1.80;;
68457;SDS011;65384;52.016;5.428;2023-04-24T00:52:20;3.95;;;1.98;;
68457;SDS011;65384;52.016;5.428;2023-04-24T00:54:45;4.20;;;2.20;;
68457;SDS011;65384;52.016;5.428;2023-04-24T00:57:11;4.00;;;2.17;;
68457;SDS011;65384;52.016;5.428;2023-04-24T00:59:38;5.63;;;2.22;;
68457;SDS011;65384;52.016;5.428;2023-04-24T01:02:05;5.78;;;2.42;;
68457;SDS011;65384;52.016;5.428;2023-04-24T01:04:31;3.17;;;1.77;;
68457;SDS011;65384;52.016;5.428;2023-04-24T01:06:56;5.50;;;2.35;;
68457;SDS011;65384;52.016;5.428;2023-04-24T01:09:23;4.10;;;2.30;;
68457;SDS011;65384;52.016;5.428;2023-04-24T01:11:48;5.25;;;2.30;;
68457;SDS011;65384;52.016;5.428;2023-04-24T01:14:14;6.60;;;2.50;;
68457;SDS011;65384;52.016;5.428;2023-04-24T01:16:40;4.35;;;2.40;;
68457;SDS011;65384;52.016;5.428;2023-04-24T01:19:06;4.13;;;2.13;;
68457;SDS011;65384;52.016;5.428;2023-04-24T01:21:32;4.72;;;2.25;;
68457;SDS011;65384;52.016;5.428;2023-04-24T01:24:02;7.20;;;2.60;;
68457;SDS011;65384;52.016;5.428;2023-04-24T01:26:28;3.85;;;2.17;;
68457;SDS011;65384;52.016;5.428;2023-04-24T01:28:54;4.97;;;2.28;;
68457;SDS011;65384;52.016;5.428;2023-04-24T01:31:19;3.92;;;1.73;;
68457;SDS011;65384;52.016;5.428;2023-04-24T01:33:45;5.45;;;2.38;;
68457;SDS011;65384;52.016;5.428;2023-04-24T01:36:10;3.78;;;2.13;;
68457;SDS011;65384;52.016;5.428;2023-04-24T01:38:36;6.07;;;2.03;;
68457;SDS011;65384;52.016;5.428;2023-04-24T01:41:01;4.43;;;2.15;;
68457;SDS011;65384;52.016;5.428;2023-04-24T01:43:27;4.55;;;2.10;;
68457;SDS011;65384;52.016;5.428;2023-04-24T01:45:52;4.65;;;2.20;;
68457;SDS011;65384;52.016;5.428;2023-04-24T01:48:18;3.63;;;2.20;;
68457;SDS011;65384;52.016;5.428;2023-04-24T01:50:43;3.75;;;2.30;;
68457;SDS011;65384;52.016;5.428;2023-04-24T01:53:08;5.07;;;2.20;;
68457;SDS011;65384;52.016;5.428;2023-04-24T01:55:34;6.38;;;2.70;;
68457;SDS011;65384;52.016;5.428;2023-04-24T01:58:00;4.45;;;2.40;;
68457;SDS011;65384;52.016;5.428;2023-04-24T02:00:27;4.53;;;2.72;;
68457;SDS011;65384;52.016;5.428;2023-04-24T02:02:52;4.97;;;2.83;;
68457;SDS011;65384;52.016;5.428;2023-04-24T02:05:17;5.47;;;3.00;;
68457;SDS011;65384;52.016;5.428;2023-04-24T02:07:43;6.13;;;2.85;;
68457;SDS011;65384;52.016;5.428;2023-04-24T02:10:08;5.47;;;3.10;;
68457;SDS011;65384;52.016;5.428;2023-04-24T02:12:34;8.27;;;3.03;;
68457;SDS011;65384;52.016;5.428;2023-04-24T02:15:00;5.72;;;3.33;;
68457;SDS011;65384;52.016;5.428;2023-04-24T02:17:25;7.20;;;2.95;;
68457;SDS011;65384;52.016;5.428;2023-04-24T02:19:50;6.95;;;3.33;;
68457;SDS011;65384;52.016;5.428;2023-04-24T02:22:16;5.55;;;3.38;;
68457;SDS011;65384;52.016;5.428;2023-04-24T02:24:41;8.98;;;3.47;;
68457;SDS011;65384;52.016;5.428;2023-04-24T02:27:07;7.25;;;3.45;;
68457;SDS011;65384;52.016;5.428;2023-04-24T02:29:32;6.45;;;2.97;;
68457;SDS011;65384;52.016;5.428;2023-04-24T02:31:57;7.47;;;3.30;;
68457;SDS011;65384;52.016;5.428;2023-04-24T02:34:23;5.53;;;3.30;;
68457;SDS011;65384;52.016;5.428;2023-04-24T02:36:48;7.90;;;3.40;;
68457;SDS011;65384;52.016;5.428;2023-04-24T02:39:14;6.57;;;3.13;;
68457;SDS011;65384;52.016;5.428;2023-04-24T02:41:41;6.28;;;3.20;;
68457;SDS011;65384;52.016;5.428;2023-04-24T02:44:07;6.78;;;3.30;;
68457;SDS011;65384;52.016;5.428;2023-04-24T02:46:32;7.05;;;3.75;;
68457;SDS011;65384;52.016;5.428;2023-04-24T02:48:58;8.05;;;4.03;;
68457;SDS011;65384;52.016;5.428;2023-04-24T02:51:23;9.25;;;3.90;;
68457;SDS011;65384;52.016;5.428;2023-04-24T02:53:48;9.60;;;4.40;;
68457;SDS011;65384;52.016;5.428;2023-04-24T02:56:14;10.63;;;4.68;;
68457;SDS011;65384;52.016;5.428;2023-04-24T02:58:39;8.10;;;4.18;;
68457;SDS011;65384;52.016;5.428;2023-04-24T03:01:05;8.75;;;4.25;;
68457;SDS011;65384;52.016;5.428;2023-04-24T03:03:30;8.32;;;4.53;;
68457;SDS011;65384;52.016;5.428;2023-04-24T03:05:55;7.70;;;4.00;;
68457;SDS011;65384;52.016;5.428;2023-04-24T03:08:21;7.38;;;3.92;;
68457;SDS011;65384;52.016;5.428;2023-04-24T03:10:47;7.80;;;4.25;;
68457;SDS011;65384;52.016;5.428;2023-04-24T03:13:12;8.60;;;4.30;;
68457;SDS011;65384;52.016;5.428;2023-04-24T03:15:38;8.65;;;4.28;;
68457;SDS011;65384;52.016;5.428;2023-04-24T03:18:03;10.35;;;5.07;;
68457;SDS011;65384;52.016;5.428;2023-04-24T03:20:28;12.60;;;5.22;;
68457;SDS011;65384;52.016;5.428;2023-04-24T03:22:54;12.80;;;4.82;;
68457;SDS011;65384;52.016;5.428;2023-04-24T03:25:19;15.05;;;5.57;;
68457;SDS011;65384;52.016;5.428;2023-04-24T03:27:45;13.02;;;5.40;;
68457;SDS011;65384;52.016;5.428;2023-04-24T03:30:11;11.40;;;5.80;;
68457;SDS011;65384;52.016;5.428;2023-04-24T03:32:36;11.93;;;5.63;;
68457;SDS011;65384;52.016;5.428;2023-04-24T03:35:04;15.90;;;5.60;;
68457;SDS011;65384;52.016;5.428;2023-04-24T03:37:31;14.10;;;6.53;;
68457;SDS011;65384;52.016;5.428;2023-04-24T03:39:56;13.65;;;6.63;;
68457;SDS011;65384;52.016;5.428;2023-04-24T03:42:21;16.60;;;7.32;;
68457;SDS011;65384;52.016;5.428;2023-04-24T03:44:47;19.42;;;8.15;;
68457;SDS011;65384;52.016;5.428;2023-04-24T03:47:12;21.30;;;8.50;;
68457;SDS011;65384;52.016;5.428;2023-04-24T03:49:37;22.13;;;9.70;;
68457;SDS011;65384;52.016;5.428;2023-04-24T03:52:03;20.40;;;9.57;;
68457;SDS011;65384;52.016;5.428;2023-04-24T03:54:28;19.45;;;9.15;;
68457;SDS011;65384;52.016;5.428;2023-04-24T03:56:54;18.08;;;8.25;;
68457;SDS011;65384;52.016;5.428;2023-04-24T03:59:19;15.43;;;5.55;;
68457;SDS011;65384;52.016;5.428;2023-04-24T04:01:44;8.55;;;3.03;;
68457;SDS011;65384;52.016;5.428;2023-04-24T04:04:10;6.47;;;2.97;;
68457;SDS011;65384;52.016;5.428;2023-04-24T04:06:35;5.75;;;2.83;;
68457;SDS011;65384;52.016;5.428;2023-04-24T04:09:01;6.88;;;2.88;;
68457;SDS011;65384;52.016;5.428;2023-04-24T04:11:27;5.63;;;2.90;;
68457;SDS011;65384;52.016;5.428;2023-04-24T04:13:52;6.03;;;3.03;;
68457;SDS011;65384;52.016;5.428;2023-04-24T04:16:17;6.47;;;2.90;;
68457;SDS011;65384;52.016;5.428;2023-04-24T04:18:43;5.47;;;3.00;;
68457;SDS011;65384;52.016;5.428;2023-04-24T04:21:08;8.45;;;3.10;;
68457;SDS011;65384;52.016;5.428;2023-04-24T04:23:34;9.50;;;3.35;;
68457;SDS011;65384;52.016;5.428;2023-04-24T04:25:59;6.97;;;3.17;;
68457;SDS011;65384;52.016;5.428;2023-04-24T04:28:25;9.00;;;3.50;;
68457;SDS011;65384;52.016;5.428;2023-04-24T04:30:51;8.82;;;3.67;;
68457;SDS011;65384;52.016;5.428;2023-04-24T04:33:20;7.80;;;3.30;;
68457;SDS011;65384;52.016;5.428;2023-04-24T04:35:46;6.93;;;3.25;;
68457;SDS011;65384;52.016;5.428;2023-04-24T04:38:13;14.30;;;3.50;;
68457;SDS011;65384;52.016;5.428;2023-04-24T04:40:40;8.73;;;3.55;;
68457;SDS011;65384;52.016;5.428;2023-04-24T04:43:05;6.40;;;3.15;;
68457;SDS011;65384;52.016;5.428;2023-04-24T04:45:31;8.25;;;3.13;;
68457;SDS011;65384;52.016;5.428;2023-04-24T04:47:57;6.25;;;2.97;;
68457;SDS011;65384;52.016;5.428;2023-04-24T04:50:25;8.20;;;3.30;;
68457;SDS011;65384;52.016;5.428;2023-04-24T04:52:51;6.38;;;3.13;;
68457;SDS011;65384;52.016;5.428;2023-04-24T04:55:17;7.13;;;3.25;;
68457;SDS011;65384;52.016;5.428;2023-04-24T04:57:43;6.15;;;2.80;;
68457;SDS011;65384;52.016;5.428;2023-04-24T05:00:08;7.47;;;3.33;;
68457;SDS011;65384;52.016;5.428;2023-04-24T05:02:35;5.10;;;2.53;;
68457;SDS011;65384;52.016;5.428;2023-04-24T05:05:00;5.45;;;2.67;;
68457;SDS011;65384;52.016;5.428;2023-04-24T05:07:26;9.77;;;3.10;;
68457;SDS011;65384;52.016;5.428;2023-04-24T05:09:51;6.20;;;3.08;;
68457;SDS011;65384;52.016;5.428;2023-04-24T05:12:18;6.72;;;3.00;;
68457;SDS011;65384;52.016;5.428;2023-04-24T05:14:43;5.47;;;2.70;;
68457;SDS011;65384;52.016;5.428;2023-04-24T05:17:09;7.38;;;2.55;;
68457;SDS011;65384;52.016;5.428;2023-04-24T05:19:34;5.30;;;2.80;;
68457;SDS011;65384;52.016;5.428;2023-04-24T05:22:02;7.35;;;3.05;;
68457;SDS011;65384;52.016;5.428;2023-04-24T05:24:29;4.88;;;2.67;;
68457;SDS011;65384;52.016;5.428;2023-04-24T05:26:54;5.15;;;2.40;;
68457;SDS011;65384;52.016;5.428;2023-04-24T05:29:20;6.00;;;2.83;;
68457;SDS011;65384;52.016;5.428;2023-04-24T05:31:46;5.22;;;2.50;;
68457;SDS011;65384;52.016;5.428;2023-04-24T05:34:11;6.00;;;2.90;;
68457;SDS011;65384;52.016;5.428;2023-04-24T05:36:37;8.10;;;2.75;;
68457;SDS011;65384;52.016;5.428;2023-04-24T05:39:02;9.95;;;3.30;;
68457;SDS011;65384;52.016;5.428;2023-04-24T05:41:29;6.07;;;3.20;;
68457;SDS011;65384;52.016;5.428;2023-04-24T05:43:55;7.63;;;2.85;;
68457;SDS011;65384;52.016;5.428;2023-04-24T05:46:20;5.20;;;2.67;;
68457;SDS011;65384;52.016;5.428;2023-04-24T05:48:46;7.70;;;2.60;;
68457;SDS011;65384;52.016;5.428;2023-04-24T05:51:11;8.40;;;2.85;;
68457;SDS011;65384;52.016;5.428;2023-04-24T05:53:37;7.00;;;2.72;;
68457;SDS011;65384;52.016;5.428;2023-04-24T05:56:02;5.47;;;2.53;;
68457;SDS011;65384;52.016;5.428;2023-04-24T05:58:27;5.88;;;2.70;;
68457;SDS011;65384;52.016;5.428;2023-04-24T06:00:53;5.50;;;2.60;;
68457;SDS011;65384;52.016;5.428;2023-04-24T06:03:18;7.70;;;2.55;;
68457;SDS011;65384;52.016;5.428;2023-04-24T06:05:44;6.22;;;2.67;;
68457;SDS011;65384;52.016;5.428;2023-04-24T06:08:09;6.38;;;2.85;;
68457;SDS011;65384;52.016;5.428;2023-04-24T06:10:34;7.35;;;2.53;;
68457;SDS011;65384;52.016;5.428;2023-04-24T06:13:00;5.63;;;2.83;;
68457;SDS011;65384;52.016;5.428;2023-04-24T06:15:29;6.18;;;3.08;;
68457;SDS011;65384;52.016;5.428;2023-04-24T06:17:58;7.22;;;2.42;;
68457;SDS011;65384;52.016;5.428;2023-04-24T06:20:24;2.85;;;1.63;;
68457;SDS011;65384;52.016;5.428;2023-04-24T06:22:49;3.67;;;1.67;;
68457;SDS011;65384;52.016;5.428;2023-04-24T06:25:15;4.13;;;1.45;;
68457;SDS011;65384;52.016;5.428;2023-04-24T06:27:40;2.75;;;1.13;;
68457;SDS011;65384;52.016;5.428;2023-04-24T06:30:06;3.58;;;1.30;;
68457;SDS011;65384;52.016;5.428;2023-04-24T06:32:32;2.35;;;1.02;;
68457;SDS011;65384;52.016;5.428;2023-04-24T06:34:57;2.50;;;0.90;;
68457;SDS011;65384;52.016;5.428;2023-04-24T06:37:22;2.17;;;1.10;;
68457;SDS011;65384;52.016;5.428;2023-04-24T06:39:48;2.25;;;1.23;;
68457;SDS011;65384;52.016;5.428;2023-04-24T06:42:13;2.97;;;0.95;;
68457;SDS011;65384;52.016;5.428;2023-04-24T06:44:39;3.03;;;1.40;;
68457;SDS011;65384;52.016;5.428;2023-04-24T06:47:08;4.43;;;1.20;;
68457;SDS011;65384;52.016;5.428;2023-04-24T06:49:34;3.80;;;1.38;;
68457;SDS011;65384;52.016;5.428;2023-04-24T06:52:00;2.22;;;1.40;;
68457;SDS011;65384;52.016;5.428;2023-04-24T06:54:25;2.85;;;1.55;;
68457;SDS011;65384;52.016;5.428;2023-04-24T06:56:51;7.72;;;1.88;;
68457;SDS011;65384;52.016;5.428;2023-04-24T06:59:17;4.88;;;2.33;;
68457;SDS011;65384;52.016;5.428;2023-04-24T07:01:42;7.35;;;2.55;;
68457;SDS011;65384;52.016;5.428;2023-04-24T07:04:07;5.25;;;2.70;;
68457;SDS011;65384;52.016;5.428;2023-04-24T07:06:33;6.50;;;2.88;;
68457;SDS011;65384;52.016;5.428;2023-04-24T07:08:58;8.75;;;3.53;;
68457;SDS011;65384;52.016;5.428;2023-04-24T07:11:25;9.15;;;3.22;;
68457;SDS011;65384;52.016;5.428;2023-04-24T07:13:54;7.55;;;3.75;;
68457;SDS011;65384;52.016;5.428;2023-04-24T07:16:19;10.80;;;4.53;;
68457;SDS011;65384;52.016;5.428;2023-04-24T07:18:44;14.13;;;6.15;;
68457;SDS011;65384;52.016;5.428;2023-04-24T07:21:10;13.68;;;6.50;;
68457;SDS011;65384;52.016;5.428;2023-04-24T07:23:36;18.15;;;6.90;;
68457;SDS011;65384;52.016;5.428;2023-04-24T07:26:01;15.90;;;6.60;;
68457;SDS011;65384;52.016;5.428;2023-04-24T07:28:27;15.55;;;6.80;;
68457;SDS011;65384;52.016;5.428;2023-04-24T07:30:56;19.58;;;6.93;;
68457;SDS011;65384;52.016;5.428;2023-04-24T07:33:21;16.45;;;7.15;;
68457;SDS011;65384;52.016;5.428;2023-04-24T07:35:47;19.00;;;6.75;;
68457;SDS011;65384;52.016;5.428;2023-04-24T07:38:12;23.30;;;7.40;;
68457;SDS011;65384;52.016;5.428;2023-04-24T07:40:38;16.63;;;6.82;;
68457;SDS011;65384;52.016;5.428;2023-04-24T07:43:03;20.67;;;7.30;;
68457;SDS011;65384;52.016;5.428;2023-04-24T07:45:28;18.35;;;7.63;;
68457;SDS011;65384;52.016;5.428;2023-04-24T07:47:54;16.60;;;7.22;;
68457;SDS011;65384;52.016;5.428;2023-04-24T07:50:19;18.52;;;6.97;;
68457;SDS011;65384;52.016;5.428;2023-04-24T07:52:45;19.85;;;6.80;;
68457;SDS011;65384;52.016;5.428;2023-04-24T07:55:11;17.08;;;6.90;;
68457;SDS011;65384;52.016;5.428;2023-04-24T07:57:36;17.95;;;6.75;;
68457;SDS011;65384;52.016;5.428;2023-04-24T08:00:02;22.98;;;7.38;;
68457;SDS011;65384;52.016;5.428;2023-04-24T08:02:28;17.70;;;7.03;;
68457;SDS011;65384;52.016;5.428;2023-04-24T08:04:54;14.82;;;7.05;;
68457;SDS011;65384;52.016;5.428;2023-04-24T08:07:19;17.65;;;6.22;;
68457;SDS011;65384;52.016;5.428;2023-04-24T08:09:45;15.35;;;6.78;;
68457;SDS011;65384;52.016;5.428;2023-04-24T08:12:10;18.13;;;6.55;;
68457;SDS011;65384;52.016;5.428;2023-04-24T08:14:35;18.60;;;6.75;;
68457;SDS011;65384;52.016;5.428;2023-04-24T08:17:01;18.77;;;6.32;;
68457;SDS011;65384;52.016;5.428;2023-04-24T08:19:27;21.95;;;6.00;;
68457;SDS011;65384;52.016;5.428;2023-04-24T08:21:52;15.15;;;5.32;;
68457;SDS011;65384;52.016;5.428;2023-04-24T08:24:18;21.73;;;5.00;;
68457;SDS011;65384;52.016;5.428;2023-04-24T08:26:43;22.65;;;5.22;;
68457;SDS011;65384;52.016;5.428;2023-04-24T08:29:09;13.77;;;4.45;;
68457;SDS011;65384;52.016;5.428;2023-04-24T08:31:34;18.55;;;3.92;;
68457;SDS011;65384;52.016;5.428;2023-04-24T08:34:00;12.95;;;4.20;;
68457;SDS011;65384;52.016;5.428;2023-04-24T08:36:25;19.55;;;4.40;;
68457;SDS011;65384;52.016;5.428;2023-04-24T08:38:51;19.27;;;4.00;;
68457;SDS011;65384;52.016;5.428;2023-04-24T08:41:16;16.13;;;4.00;;
68457;SDS011;65384;52.016;5.428;2023-04-24T08:43:43;22.67;;;3.83;;
68457;SDS011;65384;52.016;5.428;2023-04-24T08:46:08;13.90;;;3.50;;
68457;SDS011;65384;52.016;5.428;2023-04-24T08:48:35;12.57;;;3.10;;
68457;SDS011;65384;52.016;5.428;2023-04-24T08:51:01;13.57;;;3.17;;
68457;SDS011;65384;52.016;5.428;2023-04-24T08:53:27;15.60;;;2.80;;
68457;SDS011;65384;52.016;5.428;2023-04-24T08:55:54;19.10;;;3.00;;
68457;SDS011;65384;52.016;5.428;2023-04-24T08:58:20;12.30;;;3.08;;
68457;SDS011;65384;52.016;5.428;2023-04-24T09:00:45;9.68;;;2.35;;
68457;SDS011;65384;52.016;5.428;2023-04-24T09:03:15;10.48;;;2.38;;
68457;SDS011;65384;52.016;5.428;2023-04-24T09:05:41;12.00;;;2.45;;
68457;SDS011;65384;52.016;5.428;2023-04-24T09:08:10;12.73;;;2.40;;
68457;SDS011;65384;52.016;5.428;2023-04-24T09:10:38;12.07;;;2.30;;
68457;SDS011;65384;52.016;5.428;2023-04-24T09:13:04;10.13;;;2.10;;
68457;SDS011;65384;52.016;5.428;2023-04-24T09:15:30;6.35;;;1.85;;
68457;SDS011;65384;52.016;5.428;2023-04-24T09:17:55;10.43;;;2.40;;
68457;SDS011;65384;52.016;5.428;2023-04-24T09:20:21;10.02;;;1.85;;
68457;SDS011;65384;52.016;5.428;2023-04-24T09:22:46;6.85;;;2.05;;
68457;SDS011;65384;52.016;5.428;2023-04-24T09:25:12;11.60;;;2.40;;
68457;SDS011;65384;52.016;5.428;2023-04-24T09:27:41;12.48;;;2.40;;
68457;SDS011;65384;52.016;5.428;2023-04-24T09:30:10;10.52;;;1.98;;
68457;SDS011;65384;52.016;5.428;2023-04-24T09:32:37;8.27;;;1.98;;
68457;SDS011;65384;52.016;5.428;2023-04-24T09:35:06;8.82;;;2.10;;
68457;SDS011;65384;52.016;5.428;2023-04-24T09:40:10;10.27;;;2.20;;
68457;SDS011;65384;52.016;5.428;2023-04-24T09:42:43;8.80;;;2.42;;
68457;SDS011;65384;52.016;5.428;2023-04-24T09:45:09;9.98;;;1.90;;
68457;SDS011;65384;52.016;5.428;2023-04-24T09:47:36;9.00;;;2.72;;
68457;SDS011;65384;52.016;5.428;2023-04-24T09:50:09;7.45;;;2.38;;
68457;SDS011;65384;52.016;5.428;2023-04-24T09:52:39;6.75;;;1.70;;
68457;SDS011;65384;52.016;5.428;2023-04-24T09:55:17;10.60;;;3.35;;
68457;SDS011;65384;52.016;5.428;2023-04-24T09:57:54;11.55;;;2.55;;
68457;SDS011;65384;52.016;5.428;2023-04-24T10:00:22;8.85;;;2.10;;
68457;SDS011;65384;52.016;5.428;2023-04-24T10:02:55;6.95;;;1.65;;
68457;SDS011;65384;52.016;5.428;2023-04-24T10:05:28;7.78;;;2.05;;
68457;SDS011;65384;52.016;5.428;2023-04-24T10:07:57;4.97;;;1.83;;
68457;SDS011;65384;52.016;5.428;2023-04-24T10:10:27;6.30;;;2.00;;
68457;SDS011;65384;52.016;5.428;2023-04-24T10:12:53;6.45;;;2.00;;
68457;SDS011;65384;52.016;5.428;2023-04-24T10:15:19;6.28;;;1.85;;
68457;SDS011;65384;52.016;5.428;2023-04-24T10:17:49;5.13;;;1.38;;
68457;SDS011;65384;52.016;5.428;2023-04-24T10:20:19;8.48;;;1.50;;
68457;SDS011;65384;52.016;5.428;2023-04-24T10:22:47;5.80;;;1.30;;
68457;SDS011;65384;52.016;5.428;2023-04-24T10:25:15;6.57;;;1.60;;
68457;SDS011;65384;52.016;5.428;2023-04-24T10:27:41;5.00;;;1.45;;
68457;SDS011;65384;52.016;5.428;2023-04-24T10:30:08;4.50;;;1.25;;
68457;SDS011;65384;52.016;5.428;2023-04-24T10:32:34;5.55;;;1.40;;
68457;SDS011;65384;52.016;5.428;2023-04-24T10:35:00;3.40;;;1.40;;
68457;SDS011;65384;52.016;5.428;2023-04-24T10:37:25;5.60;;;1.08;;
68457;SDS011;65384;52.016;5.428;2023-04-24T10:39:51;7.40;;;1.30;;
68457;SDS011;65384;52.016;5.428;2023-04-24T10:42:19;4.43;;;1.02;;
68457;SDS011;65384;52.016;5.428;2023-04-24T10:44:47;7.65;;;1.30;;
68457;SDS011;65384;52.016;5.428;2023-04-24T10:47:13;4.85;;;1.20;;
68457;SDS011;65384;52.016;5.428;2023-04-24T10:49:41;4.40;;;0.95;;
68457;SDS011;65384;52.016;5.428;2023-04-24T10:52:08;5.78;;;1.60;;
68457;SDS011;65384;52.016;5.428;2023-04-24T10:54:35;7.57;;;0.90;;
68457;SDS011;65384;52.016;5.428;2023-04-24T10:59:43;9.85;;;1.00;;
68457;SDS011;65384;52.016;5.428;2023-04-24T11:02:08;5.32;;;0.80;;
68457;SDS011;65384;52.016;5.428;2023-04-24T11:04:34;5.15;;;1.02;;
68457;SDS011;65384;52.016;5.428;2023-04-24T11:07:03;3.65;;;0.90;;
68457;SDS011;65384;52.016;5.428;2023-04-24T11:09:32;1.40;;;0.85;;
68457;SDS011;65384;52.016;5.428;2023-04-24T11:12:05;7.82;;;1.10;;
68457;SDS011;65384;52.016;5.428;2023-04-24T11:17:30;3.95;;;0.82;;
68457;SDS011;65384;52.016;5.428;2023-04-24T11:20:03;2.80;;;0.65;;
68457;SDS011;65384;52.016;5.428;2023-04-24T11:22:32;1.75;;;0.60;;
68457;SDS011;65384;52.016;5.428;2023-04-24T11:25:00;0.93;;;0.70;;
68457;SDS011;65384;52.016;5.428;2023-04-24T11:27:27;2.47;;;0.73;;
68457;SDS011;65384;52.016;5.428;2023-04-24T11:32:27;4.23;;;1.03;;
68457;SDS011;65384;52.016;5.428;2023-04-24T11:34:59;4.65;;;1.40;;
68457;SDS011;65384;52.016;5.428;2023-04-24T11:37:26;2.20;;;0.80;;
68457;SDS011;65384;52.016;5.428;2023-04-24T11:39:54;5.30;;;1.00;;
68457;SDS011;65384;52.016;5.428;2023-04-24T11:42:21;2.50;;;0.98;;
68457;SDS011;65384;52.016;5.428;2023-04-24T11:44:49;3.55;;;0.90;;
68457;SDS011;65384;52.016;5.428;2023-04-24T11:47:15;2.33;;;0.93;;
68457;SDS011;65384;52.016;5.428;2023-04-24T11:49:40;2.45;;;1.00;;
68457;SDS011;65384;52.016;5.428;2023-04-24T11:52:05;4.72;;;1.10;;
68457;SDS011;65384;52.016;5.428;2023-04-24T11:54:31;3.60;;;0.93;;
68457;SDS011;65384;52.016;5.428;2023-04-24T11:56:57;3.88;;;1.00;;
68457;SDS011;65384;52.016;5.428;2023-04-24T11:59:22;2.47;;;0.80;;
68457;SDS011;65384;52.016;5.428;2023-04-24T12:01:48;4.68;;;1.00;;
68457;SDS011;65384;52.016;5.428;2023-04-24T12:04:14;3.15;;;0.80;;
68457;SDS011;65384;52.016;5.428;2023-04-24T12:06:58;1.77;;;0.60;;
68457;SDS011;65384;52.016;5.428;2023-04-24T12:09:25;2.45;;;0.68;;
68457;SDS011;65384;52.016;5.428;2023-04-24T12:11:54;2.58;;;0.70;;
68457;SDS011;65384;52.016;5.428;2023-04-24T12:14:23;2.97;;;0.70;;
68457;SDS011;65384;52.016;5.428;2023-04-24T12:16:49;1.98;;;0.60;;
68457;SDS011;65384;52.016;5.428;2023-04-24T12:19:20;1.52;;;0.80;;
68457;SDS011;65384;52.016;5.428;2023-04-24T12:21:58;2.95;;;0.85;;
68457;SDS011;65384;52.016;5.428;2023-04-24T12:24:24;5.95;;;0.90;;
68457;SDS011;65384;52.016;5.428;2023-04-24T12:26:50;1.58;;;0.65;;
68457;SDS011;65384;52.016;5.428;2023-04-24T12:29:19;6.95;;;1.05;;
68457;SDS011;65384;52.016;5.428;2023-04-24T12:31:45;4.43;;;1.10;;
68457;SDS011;65384;52.016;5.428;2023-04-24T12:34:20;4.75;;;0.95;;
68457;SDS011;65384;52.016;5.428;2023-04-24T12:36:47;3.85;;;0.98;;
68457;SDS011;65384;52.016;5.428;2023-04-24T12:39:19;3.97;;;0.90;;
68457;SDS011;65384;52.016;5.428;2023-04-24T12:41:54;5.57;;;0.82;;
68457;SDS011;65384;52.016;5.428;2023-04-24T12:44:33;2.75;;;1.00;;
68457;SDS011;65384;52.016;5.428;2023-04-24T12:47:02;2.75;;;0.90;;
68457;SDS011;65384;52.016;5.428;2023-04-24T12:49:29;4.78;;;0.93;;
68457;SDS011;65384;52.016;5.428;2023-04-24T12:51:55;5.57;;;1.20;;
68457;SDS011;65384;52.016;5.428;2023-04-24T12:54:20;7.03;;;1.20;;
68457;SDS011;65384;52.016;5.428;2023-04-24T12:56:46;4.93;;;1.10;;
68457;SDS011;65384;52.016;5.428;2023-04-24T12:59:11;5.28;;;1.40;;
68457;SDS011;65384;52.016;5.428;2023-04-24T13:01:36;8.48;;;1.27;;
68457;SDS011;65384;52.016;5.428;2023-04-24T13:04:02;7.32;;;1.95;;
68457;SDS011;65384;52.016;5.428;2023-04-24T13:06:27;6.00;;;1.10;;
68457;SDS011;65384;52.016;5.428;2023-04-24T13:08:53;10.57;;;1.60;;
68457;SDS011;65384;52.016;5.428;2023-04-24T13:11:19;7.10;;;1.35;;
68457;SDS011;65384;52.016;5.428;2023-04-24T13:13:46;5.22;;;1.10;;
68457;SDS011;65384;52.016;5.428;2023-04-24T13:16:11;7.68;;;1.30;;
68457;SDS011;65384;52.016;5.428;2023-04-24T13:18:37;3.50;;;1.33;;
68457;SDS011;65384;52.016;5.428;2023-04-24T13:21:02;9.40;;;1.60;;
68457;SDS011;65384;52.016;5.428;2023-04-24T13:23:28;3.95;;;1.10;;
68457;SDS011;65384;52.016;5.428;2023-04-24T13:25:54;5.45;;;1.40;;
68457;SDS011;65384;52.016;5.428;2023-04-24T13:28:22;4.10;;;1.30;;
68457;SDS011;65384;52.016;5.428;2023-04-24T13:30:47;4.85;;;1.20;;
68457;SDS011;65384;52.016;5.428;2023-04-24T13:33:13;7.22;;;1.13;;
68457;SDS011;65384;52.016;5.428;2023-04-24T13:35:39;6.05;;;1.25;;
68457;SDS011;65384;52.016;5.428;2023-04-24T13:38:04;9.48;;;1.73;;
68457;SDS011;65384;52.016;5.428;2023-04-24T13:40:31;8.32;;;1.67;;
68457;SDS011;65384;52.016;5.428;2023-04-24T13:42:57;5.72;;;1.50;;
68457;SDS011;65384;52.016;5.428;2023-04-24T13:45:22;9.38;;;1.80;;
68457;SDS011;65384;52.016;5.428;2023-04-24T13:47:47;9.98;;;1.90;;
68457;SDS011;65384;52.016;5.428;2023-04-24T13:50:13;6.30;;;1.55;;
68457;SDS011;65384;52.016;5.428;2023-04-24T13:52:38;4.78;;;1.10;;
68457;SDS011;65384;52.016;5.428;2023-04-24T13:55:04;6.43;;;1.40;;
68457;SDS011;65384;52.016;5.428;2023-04-24T13:57:29;5.05;;;1.50;;
68457;SDS011;65384;52.016;5.428;2023-04-24T13:59:56;6.95;;;1.48;;
68457;SDS011;65384;52.016;5.428;2023-04-24T14:02:26;8.10;;;1.75;;
68457;SDS011;65384;52.016;5.428;2023-04-24T14:04:51;5.68;;;1.77;;
68457;SDS011;65384;52.016;5.428;2023-04-24T14:07:17;10.70;;;2.08;;
68457;SDS011;65384;52.016;5.428;2023-04-24T14:09:42;10.70;;;2.38;;
68457;SDS011;65384;52.016;5.428;2023-04-24T14:12:07;6.82;;;1.90;;
68457;SDS011;65384;52.016;5.428;2023-04-24T14:14:33;9.77;;;1.80;;
68457;SDS011;65384;52.016;5.428;2023-04-24T14:16:58;11.05;;;1.77;;
68457;SDS011;65384;52.016;5.428;2023-04-24T14:19:23;9.45;;;1.80;;
68457;SDS011;65384;52.016;5.428;2023-04-24T14:21:49;7.60;;;1.60;;
68457;SDS011;65384;52.016;5.428;2023-04-24T14:24:14;5.43;;;1.60;;
68457;SDS011;65384;52.016;5.428;2023-04-24T14:26:40;4.60;;;1.20;;
68457;SDS011;65384;52.016;5.428;2023-04-24T14:29:06;5.40;;;1.60;;
68457;SDS011;65384;52.016;5.428;2023-04-24T14:31:31;7.60;;;1.65;;
68457;SDS011;65384;52.016;5.428;2023-04-24T14:33:56;7.35;;;1.80;;
68457;SDS011;65384;52.016;5.428;2023-04-24T14:36:22;8.57;;;1.83;;
68457;SDS011;65384;52.016;5.428;2023-04-24T14:38:47;8.63;;;1.88;;
68457;SDS011;65384;52.016;5.428;2023-04-24T14:41:13;7.18;;;1.77;;
68457;SDS011;65384;52.016;5.428;2023-04-24T14:43:38;8.35;;;1.80;;
68457;SDS011;65384;52.016;5.428;2023-04-24T14:46:04;8.15;;;2.08;;
68457;SDS011;65384;52.016;5.428;2023-04-24T14:48:29;10.63;;;2.45;;
68457;SDS011;65384;52.016;5.428;2023-04-24T14:50:55;5.68;;;2.08;;